createdAt,value
2019-05-10T00:00:57.136Z,10.90
2019-05-10T00:03:43.467Z,11.00
2019-05-10T00:06:29.514Z,10.90
2019-05-10T00:08:57.045Z,10.90
2019-05-10T00:11:26.918Z,10.90
2019-05-10T00:14:13.089Z,10.90
2019-05-10T00:16:41.289Z,10.80
2019-05-10T00:19:09.602Z,10.80
2019-05-10T00:21:37.792Z,10.70
2019-05-10T00:24:05.992Z,10.70
2019-05-10T00:26:34.188Z,10.70
2019-05-10T00:29:02.418Z,10.60
2019-05-10T00:31:30.605Z,10.60
2019-05-10T00:33:58.808Z,10.60
2019-05-10T00:36:27.043Z,10.60
2019-05-10T00:38:55.235Z,10.60
2019-05-10T00:41:23.435Z,10.60
2019-05-10T00:43:51.677Z,10.60
2019-05-10T00:46:19.874Z,10.60
2019-05-10T00:48:48.068Z,10.60
2019-05-10T00:51:16.272Z,10.60
2019-05-10T00:53:44.486Z,10.70
2019-05-10T00:56:12.672Z,10.70
2019-05-10T00:58:40.906Z,10.70
2019-05-10T01:01:09.105Z,10.70
2019-05-10T01:03:37.338Z,10.70
2019-05-10T01:06:05.624Z,10.70
2019-05-10T01:08:33.898Z,10.70
2019-05-10T01:11:02.096Z,10.70
2019-05-10T01:13:30.335Z,10.70
2019-05-10T01:15:58.566Z,10.70
2019-05-10T01:18:26.786Z,10.70
2019-05-10T01:20:54.980Z,10.70
2019-05-10T01:23:23.214Z,10.50
2019-05-10T01:25:51.412Z,10.60
2019-05-10T01:28:19.608Z,10.50
2019-05-10T01:30:47.849Z,10.50
2019-05-10T01:33:16.046Z,10.50
2019-05-10T01:35:44.252Z,10.50
2019-05-10T01:38:12.448Z,10.50
2019-05-10T01:40:40.688Z,10.40
2019-05-10T01:43:08.911Z,10.30
2019-05-10T01:45:37.112Z,10.30
2019-05-10T01:48:05.317Z,10.20
2019-05-10T01:50:33.554Z,10.20
2019-05-10T01:53:01.748Z,10.20
2019-05-10T01:55:29.948Z,10.20
2019-05-10T01:57:58.144Z,10.20
2019-05-10T02:00:26.386Z,10.10
2019-05-10T02:02:54.577Z,10.10
2019-05-10T02:05:22.787Z,10.10
2019-05-10T02:07:50.976Z,10.00
2019-05-10T02:10:19.213Z,10.00
2019-05-10T02:12:47.414Z,9.90
2019-05-10T02:15:15.613Z,9.90
2019-05-10T02:17:43.850Z,9.80
2019-05-10T02:20:12.028Z,9.80
2019-05-10T02:22:40.224Z,9.70
2019-05-10T02:25:08.420Z,9.70
2019-05-10T02:27:36.625Z,9.60
2019-05-10T02:30:05.802Z,9.50
2019-05-10T02:32:34.026Z,9.50
2019-05-10T02:35:02.216Z,9.50
2019-05-10T02:37:30.421Z,9.50
2019-05-10T02:39:58.609Z,9.50
2019-05-10T02:42:26.805Z,9.50
2019-05-10T02:44:55.004Z,9.50
2019-05-10T02:47:23.248Z,9.50
2019-05-10T02:49:51.431Z,9.40
2019-05-10T02:52:19.680Z,9.40
2019-05-10T02:54:47.866Z,9.40
2019-05-10T02:57:16.065Z,9.40
2019-05-10T02:59:44.315Z,9.40
2019-05-10T03:02:12.561Z,9.40
2019-05-10T03:04:40.921Z,9.40
2019-05-10T03:07:09.127Z,9.40
2019-05-10T03:09:37.355Z,9.30
2019-05-10T03:12:17.732Z,9.30
2019-05-10T03:14:45.960Z,9.30
2019-05-10T03:17:14.187Z,9.20
2019-05-10T03:19:42.380Z,9.10
2019-05-10T03:22:10.585Z,9.10
2019-05-10T03:24:38.772Z,9.10
2019-05-10T03:27:06.986Z,9.10
2019-05-10T03:29:35.172Z,9.20
2019-05-10T03:32:03.403Z,9.10
2019-05-10T03:34:31.616Z,9.00
2019-05-10T03:36:59.893Z,8.90
2019-05-10T03:39:28.081Z,8.90
2019-05-10T03:41:56.281Z,8.90
2019-05-10T03:44:24.480Z,8.90
2019-05-10T03:46:52.731Z,8.80
2019-05-10T03:49:20.947Z,8.70
2019-05-10T03:51:49.150Z,8.60
2019-05-10T03:54:17.388Z,8.60
2019-05-10T03:56:45.603Z,8.60
2019-05-10T03:59:13.827Z,8.60
2019-05-10T04:01:42.013Z,8.60
2019-05-10T04:04:10.225Z,8.60
2019-05-10T04:06:38.417Z,8.50
2019-05-10T04:09:06.716Z,8.50
2019-05-10T04:11:34.905Z,8.50
2019-05-10T04:14:03.405Z,8.60
2019-05-10T04:16:31.593Z,8.60
2019-05-10T04:18:59.793Z,8.60
2019-05-10T04:21:27.989Z,8.60
2019-05-10T04:23:56.181Z,8.60
2019-05-10T04:26:24.386Z,8.70
2019-05-10T04:28:52.583Z,8.70
2019-05-10T04:31:20.807Z,8.70
2019-05-10T04:33:49.035Z,8.70
2019-05-10T04:36:17.263Z,8.80
2019-05-10T04:38:45.461Z,8.90
2019-05-10T04:41:13.654Z,9.00
2019-05-10T04:43:41.843Z,9.10
2019-05-10T04:46:10.057Z,9.20
2019-05-10T04:48:38.281Z,9.30
2019-05-10T04:51:06.468Z,9.30
2019-05-10T04:53:34.670Z,9.30
2019-05-10T04:56:02.903Z,9.40
2019-05-10T04:58:31.096Z,9.40
2019-05-10T05:00:59.294Z,9.60
2019-05-10T05:03:27.496Z,9.60
2019-05-10T05:05:55.694Z,9.70
2019-05-10T05:08:23.927Z,9.80
2019-05-10T05:10:52.178Z,9.80
2019-05-10T05:13:20.396Z,9.90
2019-05-10T05:15:48.598Z,10.00
2019-05-10T05:18:16.836Z,10.10
2019-05-10T05:20:45.028Z,10.20
2019-05-10T05:23:13.241Z,10.30
2019-05-10T05:25:41.903Z,10.50
2019-05-10T05:28:10.255Z,10.60
2019-05-10T05:30:38.974Z,10.60
2019-05-10T05:33:07.270Z,10.70
2019-05-10T05:35:35.462Z,10.80
2019-05-10T05:38:03.666Z,10.80
2019-05-10T05:40:31.907Z,10.90
2019-05-10T05:43:02.644Z,10.90
2019-05-10T05:45:33.849Z,11.00
2019-05-10T05:47:59.994Z,11.00
2019-05-10T05:50:28.202Z,11.10
2019-05-10T05:52:56.492Z,11.20
2019-05-10T05:55:24.694Z,11.20
2019-05-10T05:57:52.890Z,11.30
2019-05-10T06:00:21.096Z,11.40
2019-05-10T06:02:49.372Z,11.40
2019-05-10T06:05:32.600Z,11.40
2019-05-10T06:07:47.544Z,11.40
2019-05-10T06:10:19.584Z,11.50
2019-05-10T06:12:50.697Z,11.60
2019-05-10T06:15:15.621Z,11.70
2019-05-10T06:17:43.853Z,11.70
2019-05-10T06:20:12.117Z,11.70
2019-05-10T06:22:44.011Z,11.70
2019-05-10T06:25:11.020Z,11.70
2019-05-10T06:27:41.123Z,11.70
2019-05-10T06:30:09.177Z,11.70
2019-05-10T06:32:37.389Z,11.60
2019-05-10T06:35:06.707Z,11.70
2019-05-10T06:37:34.972Z,11.70
2019-05-10T06:40:03.646Z,11.80
2019-05-10T06:42:34.713Z,11.90
2019-05-10T06:45:04.849Z,12.00
2019-05-10T06:47:31.724Z,12.00
2019-05-10T06:49:59.962Z,12.00
2019-05-10T06:52:29.839Z,11.90
2019-05-10T06:54:58.771Z,11.80
2019-05-10T06:57:27.138Z,11.70
2019-05-10T06:59:56.441Z,11.60
2019-05-10T07:02:26.796Z,11.60
2019-05-10T07:04:55.219Z,11.60
2019-05-10T07:07:42.404Z,11.70
2019-05-10T07:10:10.035Z,11.60
2019-05-10T07:12:23.349Z,11.60
2019-05-10T07:14:51.548Z,11.60
2019-05-10T07:17:19.745Z,11.70
2019-05-10T07:19:53.486Z,11.70
2019-05-10T07:22:21.730Z,11.80
2019-05-10T07:24:47.823Z,11.90
2019-05-10T07:27:16.054Z,11.90
2019-05-10T07:29:46.249Z,11.90
2019-05-10T07:32:16.311Z,11.90
2019-05-10T07:34:48.855Z,11.90
2019-05-10T07:37:14.040Z,12.00
2019-05-10T07:39:42.278Z,12.10
2019-05-10T07:42:10.473Z,12.20
2019-05-10T07:44:41.471Z,12.20
2019-05-10T07:47:08.597Z,12.10
2019-05-10T07:49:36.793Z,12.00
2019-05-10T07:52:04.992Z,12.00
2019-05-10T07:54:37.521Z,12.00
2019-05-10T07:57:03.114Z,12.00
2019-05-10T07:59:42.019Z,11.90
2019-05-10T08:02:05.977Z,11.90
2019-05-10T08:04:33.501Z,12.00
2019-05-10T08:07:01.080Z,12.00
2019-05-10T08:09:31.568Z,12.10
2019-05-10T08:12:03.215Z,12.30
2019-05-10T08:14:29.149Z,12.20
2019-05-10T08:17:05.622Z,12.30
2019-05-10T08:19:27.268Z,12.50
2019-05-10T08:22:00.843Z,12.50
2019-05-10T08:24:25.405Z,12.40
2019-05-10T08:26:57.167Z,12.40
2019-05-10T08:29:23.529Z,12.40
2019-05-10T08:31:55.415Z,12.70
2019-05-10T08:34:22.713Z,12.90
2019-05-10T08:36:51.972Z,13.20
2019-05-10T08:39:22.280Z,13.40
2019-05-10T08:42:03.616Z,13.70
2019-05-10T08:44:21.762Z,14.00
2019-05-10T08:46:52.338Z,14.00
2019-05-10T08:49:22.013Z,14.00
2019-05-10T08:51:52.093Z,14.10
2019-05-10T08:54:21.977Z,13.90
2019-05-10T08:59:35.705Z,13.70
2019-05-10T09:02:03.908Z,13.80
2019-05-10T09:04:41.665Z,14.10
2019-05-10T09:07:02.801Z,14.30
2019-05-10T09:09:35.884Z,14.20
2019-05-10T09:12:06.660Z,14.30
2019-05-10T09:14:32.701Z,14.30
2019-05-10T09:17:04.350Z,14.30
2019-05-10T09:19:37.431Z,14.50
2019-05-10T09:22:01.992Z,14.50
2019-05-10T09:24:32.478Z,14.40
2019-05-10T09:27:01.867Z,14.30
2019-05-10T09:29:33.028Z,14.40
2019-05-10T09:32:04.031Z,14.40
2019-05-10T09:34:32.273Z,14.50
2019-05-10T09:36:59.981Z,14.70
2019-05-10T09:39:28.181Z,15.10
2019-05-10T09:41:56.389Z,15.50
2019-05-10T09:44:24.622Z,15.60
2019-05-10T09:46:52.866Z,15.50
2019-05-10T09:49:23.241Z,15.40
2019-05-10T09:51:52.804Z,15.60
2019-05-10T09:54:23.278Z,15.90
2019-05-10T09:56:52.338Z,15.90
2019-05-10T09:59:20.680Z,15.90
2019-05-10T10:01:48.884Z,16.00
2019-05-10T10:04:17.823Z,15.90
2019-05-10T10:06:51.190Z,15.40
2019-05-10T10:09:17.230Z,15.20
2019-05-10T10:11:57.298Z,15.30
2019-05-10T10:14:17.925Z,15.40
2019-05-10T10:16:49.474Z,15.30
2019-05-10T10:19:18.085Z,15.40
2019-05-10T10:21:47.501Z,15.30
2019-05-10T10:24:17.819Z,15.30
2019-05-10T10:26:45.084Z,15.30
2019-05-10T10:29:13.322Z,15.30
2019-05-10T10:31:51.493Z,15.30
2019-05-10T10:34:11.509Z,15.30
2019-05-10T10:36:43.763Z,15.40
2019-05-10T10:39:09.657Z,15.40
2019-05-10T10:41:37.892Z,15.40
2019-05-10T10:44:08.257Z,15.50
2019-05-10T10:46:36.044Z,15.40
2019-05-10T10:49:05.563Z,15.30
2019-05-10T10:51:34.541Z,15.20
2019-05-10T10:54:02.944Z,15.00
2019-05-10T10:56:31.136Z,15.00
2019-05-10T10:58:59.380Z,14.90
2019-05-10T11:01:38.092Z,14.80
2019-05-10T11:03:57.494Z,14.70
2019-05-10T11:06:25.694Z,14.80
2019-05-10T11:08:53.896Z,14.60
2019-05-10T11:11:22.097Z,14.60
2019-05-10T11:13:57.962Z,14.40
2019-05-10T11:16:20.749Z,14.30
2019-05-10T11:18:51.725Z,14.30
2019-05-10T11:21:23.275Z,14.30
2019-05-10T11:23:48.884Z,14.40
2019-05-10T11:26:17.080Z,14.50
2019-05-10T11:28:45.285Z,14.60
2019-05-10T11:31:13.494Z,14.60
2019-05-10T11:33:41.862Z,14.60
2019-05-10T11:36:11.670Z,14.60
2019-05-10T11:38:41.962Z,14.50
2019-05-10T11:41:13.630Z,14.50
2019-05-10T11:43:41.893Z,14.40
2019-05-10T11:46:11.731Z,14.30
2019-05-10T11:48:41.944Z,14.20
2019-05-10T11:51:12.295Z,14.20
2019-05-10T11:53:41.359Z,14.50
2019-05-10T11:56:14.136Z,14.70
2019-05-10T11:58:49.833Z,14.70
2019-05-10T12:01:17.640Z,14.90
2019-05-10T12:03:42.213Z,15.00
2019-05-10T12:06:12.020Z,15.20
2019-05-10T12:08:41.537Z,15.50
2019-05-10T12:13:38.942Z,15.90
2019-05-10T12:16:07.132Z,16.20
2019-05-10T12:21:09.586Z,16.20
2019-05-10T12:23:45.743Z,16.40
2019-05-10T12:26:06.386Z,15.70
2019-05-10T12:26:16.688Z,16.00
2019-05-10T12:28:35.868Z,16.40
2019-05-10T12:31:07.718Z,16.30
2019-05-10T12:33:34.269Z,16.30
2019-05-10T12:36:02.502Z,16.30
2019-05-10T12:38:32.165Z,16.30
2019-05-10T12:41:01.354Z,16.20
2019-05-10T12:43:30.979Z,16.10
2019-05-10T12:45:59.300Z,15.90
2019-05-10T12:48:27.526Z,15.90
2019-05-10T12:50:59.582Z,16.00
2019-05-10T12:53:25.648Z,16.00
2019-05-10T12:55:53.895Z,16.20
2019-05-10T12:58:22.089Z,16.30
2019-05-10T13:00:52.614Z,16.20
2019-05-10T13:03:25.352Z,16.00
2019-05-10T13:05:52.992Z,16.10
2019-05-10T13:08:20.092Z,16.10
2019-05-10T13:10:49.932Z,16.30
2019-05-10T13:13:23.680Z,16.30
2019-05-10T13:15:48.331Z,16.60
2019-05-10T13:18:16.529Z,17.00
2019-05-10T13:20:44.759Z,17.50
2019-05-10T13:23:16.093Z,17.70
2019-05-10T13:25:42.877Z,18.00
2019-05-10T13:28:11.789Z,18.30
2019-05-10T13:30:40.187Z,18.40
2019-05-10T13:33:08.376Z,18.50
2019-05-10T13:35:36.581Z,18.50
2019-05-10T13:38:06.511Z,18.30
2019-05-10T13:40:39.190Z,18.10
2019-05-10T13:43:04.817Z,17.50
2019-05-10T13:45:37.594Z,17.90
2019-05-10T13:48:02.929Z,18.30
2019-05-10T13:50:31.137Z,18.30
2019-05-10T13:52:59.337Z,18.40
2019-05-10T13:55:27.542Z,18.80
2019-05-10T13:57:55.778Z,19.20
2019-05-10T14:00:32.958Z,19.10
2019-05-10T14:02:53.964Z,18.90
2019-05-10T14:05:22.173Z,18.40
2019-05-10T14:07:52.727Z,18.40
2019-05-10T14:10:23.505Z,18.70
2019-05-10T14:12:50.229Z,18.40
2019-05-10T14:15:18.440Z,18.30
2019-05-10T14:17:46.661Z,18.20
2019-05-10T14:20:30.364Z,18.00
2019-05-10T14:22:48.604Z,17.70
2019-05-10T14:25:14.807Z,17.60
2019-05-10T14:27:43.034Z,17.60
2019-05-10T14:30:13.383Z,17.70
2019-05-10T14:32:41.144Z,17.70
2019-05-10T14:35:09.658Z,17.60
2019-05-10T14:37:37.851Z,17.40
2019-05-10T14:40:06.863Z,17.40
2019-05-10T14:42:35.066Z,17.80
2019-05-10T14:45:03.462Z,18.00
2019-05-10T14:47:31.694Z,18.10
2019-05-10T14:49:59.884Z,18.10
2019-05-10T14:52:28.088Z,17.90
2019-05-10T14:54:57.039Z,17.50
2019-05-10T14:57:25.301Z,17.60
2019-05-10T14:59:53.552Z,17.40
2019-05-10T15:02:22.599Z,17.60
2019-05-10T15:04:51.706Z,17.70
2019-05-10T15:07:19.948Z,17.90
2019-05-10T15:09:48.128Z,17.80
2019-05-10T15:12:22.002Z,17.70
2019-05-10T15:14:46.244Z,17.60
2019-05-10T15:17:14.482Z,17.60
2019-05-10T15:19:42.728Z,17.50
2019-05-10T15:22:11.004Z,17.40
2019-05-10T15:24:39.294Z,17.50
2019-05-10T15:27:07.490Z,17.60
2019-05-10T15:29:35.692Z,17.50
2019-05-10T15:32:03.934Z,17.40
2019-05-10T15:34:32.128Z,17.20
2019-05-10T15:37:02.633Z,17.10
2019-05-10T15:39:30.597Z,17.00
2019-05-10T15:42:00.564Z,16.90
2019-05-10T15:44:31.299Z,16.90
2019-05-10T15:46:58.700Z,16.90
2019-05-10T15:49:26.900Z,16.80
2019-05-10T15:52:07.318Z,16.50
2019-05-10T15:54:25.068Z,16.40
2019-05-10T15:56:55.630Z,16.40
2019-05-10T15:59:23.249Z,16.30
2019-05-10T16:01:51.485Z,16.20
2019-05-10T16:04:19.708Z,16.10
2019-05-10T16:06:47.904Z,15.90
2019-05-10T16:09:17.850Z,15.60
2019-05-10T16:11:46.064Z,15.40
2019-05-10T16:14:14.264Z,15.10
2019-05-10T16:16:42.471Z,15.20
2019-05-10T16:19:12.938Z,15.30
2019-05-10T16:21:40.621Z,15.30
2019-05-10T16:24:08.820Z,15.50
2019-05-10T16:26:37.021Z,15.60
2019-05-10T16:29:05.270Z,15.60
2019-05-10T16:31:33.460Z,15.60
2019-05-10T16:34:01.702Z,15.70
2019-05-10T16:36:30.216Z,15.70
2019-05-10T16:39:01.482Z,15.60
2019-05-10T16:41:28.358Z,15.50
2019-05-10T16:43:57.859Z,15.50
2019-05-10T16:46:26.476Z,15.50
2019-05-10T16:48:54.676Z,15.50
2019-05-10T16:51:22.882Z,15.40
2019-05-10T16:53:51.090Z,15.40
2019-05-10T16:56:21.232Z,15.40
2019-05-10T16:58:53.253Z,15.30
2019-05-10T17:01:25.375Z,15.30
2019-05-10T17:03:51.053Z,15.20
2019-05-10T17:06:19.036Z,15.20
2019-05-10T17:08:47.249Z,15.10
2019-05-10T17:11:15.444Z,15.10
2019-05-10T17:13:43.652Z,15.10
2019-05-10T17:16:17.132Z,15.10
2019-05-10T17:18:41.777Z,15.00
2019-05-10T17:21:10.000Z,14.90
2019-05-10T17:23:41.489Z,14.90
2019-05-10T17:26:08.166Z,14.90
2019-05-10T17:28:37.424Z,14.90
2019-05-10T17:31:07.607Z,14.70
2019-05-10T17:33:36.673Z,14.70
2019-05-10T17:36:08.473Z,14.70
2019-05-10T17:38:35.593Z,14.60
2019-05-10T17:41:03.818Z,14.50
2019-05-10T17:43:32.008Z,14.50
2019-05-10T17:46:00.211Z,14.40
2019-05-10T17:48:28.465Z,14.30
2019-05-10T17:50:56.666Z,14.30
2019-05-10T17:53:24.871Z,14.30
2019-05-10T17:55:56.472Z,14.20
2019-05-10T17:58:27.646Z,14.10
2019-05-10T18:00:52.938Z,14.10
2019-05-10T18:03:21.137Z,14.00
2019-05-10T18:05:53.009Z,14.10
2019-05-10T18:08:19.264Z,14.00
2019-05-10T18:10:47.469Z,14.00
2019-05-10T18:13:15.702Z,14.00
2019-05-10T18:15:43.934Z,13.90
2019-05-10T18:18:12.133Z,13.80
2019-05-10T18:20:42.358Z,13.70
2019-05-10T18:23:10.276Z,13.70
2019-05-10T18:25:38.482Z,13.60
2019-05-10T18:28:06.714Z,13.50
2019-05-10T18:30:34.950Z,13.30
2019-05-10T18:33:06.846Z,13.40
2019-05-10T18:35:33.125Z,13.60
2019-05-10T18:38:01.324Z,13.50
2019-05-10T18:40:31.528Z,13.20
2019-05-10T18:43:03.828Z,13.20
2019-05-10T18:45:30.116Z,13.20
2019-05-10T18:47:58.400Z,13.00
2019-05-10T18:50:26.608Z,13.10
2019-05-10T18:52:54.838Z,13.00
2019-05-10T18:55:23.040Z,12.80
2019-05-10T18:57:52.557Z,12.80
2019-05-10T19:00:23.007Z,12.80
2019-05-10T19:02:55.284Z,12.90
2019-05-10T19:05:25.255Z,12.90
2019-05-10T19:08:02.608Z,12.80
2019-05-10T19:10:20.664Z,12.70
2019-05-10T19:12:59.770Z,12.70
2019-05-10T19:15:18.785Z,12.70
2019-05-10T19:17:47.332Z,12.70
2019-05-10T19:20:18.243Z,12.60
2019-05-10T19:22:45.536Z,12.60
2019-05-10T19:25:14.415Z,12.60
2019-05-10T19:27:44.765Z,12.50
2019-05-10T19:30:12.779Z,12.50
2019-05-10T19:32:41.053Z,12.60
2019-05-10T19:35:09.257Z,12.60
2019-05-10T19:37:37.452Z,12.50
2019-05-10T19:40:07.098Z,12.50
2019-05-10T19:42:37.319Z,12.50
2019-05-10T19:45:06.183Z,12.40
2019-05-10T19:47:34.420Z,12.30
2019-05-10T19:50:03.121Z,12.40
2019-05-10T19:52:31.393Z,12.30
2019-05-10T19:54:59.600Z,12.10
2019-05-10T19:57:27.830Z,12.10
2019-05-10T19:59:56.024Z,11.90
2019-05-10T20:02:24.232Z,12.00
2019-05-10T20:04:52.466Z,11.90
2019-05-10T20:07:20.660Z,11.90
2019-05-10T20:09:48.890Z,11.80
2019-05-10T20:12:17.085Z,11.80
2019-05-10T20:14:45.284Z,11.80
2019-05-10T20:17:13.744Z,11.70
2019-05-10T20:19:42.064Z,11.70
2019-05-10T20:22:10.299Z,11.70
2019-05-10T20:24:38.492Z,11.80
2019-05-10T20:27:06.695Z,11.90
2019-05-10T20:29:34.888Z,12.00
2019-05-10T20:32:03.101Z,12.10
2019-05-10T20:34:31.307Z,12.00
2019-05-10T20:36:59.534Z,11.80
2019-05-10T20:39:27.725Z,11.80
2019-05-10T20:41:55.935Z,11.70
2019-05-10T20:44:24.125Z,11.90
2019-05-10T20:46:52.325Z,11.90
2019-05-10T20:49:20.561Z,11.80
2019-05-10T20:51:48.792Z,11.70
2019-05-10T20:54:17.027Z,11.70
2019-05-10T20:56:45.232Z,11.60
2019-05-10T20:59:13.486Z,11.60
2019-05-10T21:01:41.695Z,11.50
2019-05-10T21:04:09.894Z,11.50
2019-05-10T21:06:38.103Z,11.50
2019-05-10T21:09:06.302Z,11.40
2019-05-10T21:11:34.503Z,11.40
2019-05-10T21:14:02.706Z,11.40
2019-05-10T21:16:30.908Z,11.40
2019-05-10T21:18:59.106Z,11.30
2019-05-10T21:21:27.312Z,11.30
2019-05-10T21:23:55.504Z,11.20
2019-05-10T21:26:23.709Z,11.20
2019-05-10T21:28:51.912Z,11.40
2019-05-10T21:31:20.112Z,11.40
2019-05-10T21:33:48.360Z,11.30
2019-05-10T21:36:16.601Z,11.40
2019-05-10T21:38:44.786Z,11.50
2019-05-10T21:41:13.018Z,11.40
2019-05-10T21:43:41.273Z,11.40
2019-05-10T21:46:09.507Z,11.20
2019-05-10T21:48:37.693Z,11.20
2019-05-10T21:51:05.898Z,11.30
2019-05-10T21:53:34.154Z,11.20
2019-05-10T21:56:02.392Z,11.20
2019-05-10T21:58:30.635Z,11.10
2019-05-10T22:00:58.826Z,11.10
2019-05-10T22:03:27.085Z,11.10
2019-05-10T22:05:55.320Z,11.20
2019-05-10T22:08:23.640Z,11.20
2019-05-10T22:10:51.897Z,11.20
2019-05-10T22:13:20.195Z,11.20
2019-05-10T22:15:48.509Z,11.30
2019-05-10T22:18:16.815Z,11.40
2019-05-10T22:20:45.051Z,11.40
2019-05-10T22:23:13.329Z,11.40
2019-05-10T22:25:41.593Z,11.30
2019-05-10T22:28:09.877Z,11.20
2019-05-10T22:30:38.281Z,11.10
2019-05-10T22:33:06.515Z,11.10
2019-05-10T22:35:34.756Z,11.10
2019-05-10T22:38:03.039Z,11.10
2019-05-10T22:40:31.344Z,11.10
2019-05-10T22:42:59.584Z,11.10
2019-05-10T22:45:27.824Z,11.20
2019-05-10T22:47:56.097Z,11.20
2019-05-10T22:50:24.329Z,11.20
2019-05-10T22:52:52.577Z,11.10
2019-05-10T22:55:20.918Z,11.00
2019-05-10T22:57:49.152Z,11.00
2019-05-10T23:00:17.394Z,11.00
2019-05-10T23:02:45.670Z,10.90
2019-05-10T23:05:13.907Z,10.90
2019-05-10T23:07:42.139Z,10.90
2019-05-10T23:10:10.645Z,10.90
2019-05-10T23:12:38.888Z,10.90
2019-05-10T23:15:07.121Z,10.90
2019-05-10T23:17:35.359Z,10.90
2019-05-10T23:20:03.611Z,10.90
2019-05-10T23:22:31.847Z,11.00
2019-05-10T23:25:00.122Z,11.00
2019-05-10T23:27:28.355Z,10.90
2019-05-10T23:29:56.592Z,10.90
2019-05-10T23:32:24.834Z,10.90
2019-05-10T23:34:53.107Z,11.00
2019-05-10T23:37:21.344Z,11.20
2019-05-10T23:39:49.591Z,11.10
2019-05-10T23:42:17.908Z,11.10
2019-05-10T23:44:46.148Z,11.00
2019-05-10T23:47:14.417Z,11.00
2019-05-10T23:49:42.660Z,11.00
2019-05-10T23:52:10.933Z,11.00
2019-05-10T23:54:39.223Z,11.00
2019-05-10T23:57:07.457Z,10.90
2019-05-10T23:59:35.700Z,10.90
